sensor_id;sensor_type;location;lat;lon;timestamp;pressure;altitude;pressure_sealevel;temperature;humidity
6599;BME280;3335;43.198;27.918;2023-03-14T00:02:02;148414.97;;;4.54;100.00
6599;BME280;3335;43.198;27.918;2023-03-14T00:04:29;148407.53;;;4.51;100.00
6599;BME280;3335;43.198;27.918;2023-03-14T00:06:56;148366.50;;;4.34;100.00
6599;BME280;3335;43.198;27.918;2023-03-14T00:09:23;148385.16;;;4.42;100.00
6599;BME280;3335;43.198;27.918;2023-03-14T00:11:52;148114.25;;;3.31;100.00
6599;BME280;3335;43.198;27.918;2023-03-14T00:14:21;148273.25;;;3.96;100.00
6599;BME280;3335;43.198;27.918;2023-03-14T00:16:48;148376.44;;;4.38;100.00
6599;BME280;3335;43.198;27.918;2023-03-14T00:19:15;148335.44;;;4.21;100.00
6599;BME280;3335;43.198;27.918;2023-03-14T00:21:41;148385.16;;;4.42;100.00
6599;BME280;3335;43.198;27.918;2023-03-14T00:24:08;148432.41;;;4.61;100.00
6599;BME280;3335;43.198;27.918;2023-03-14T00:26:35;148299.38;;;4.07;100.00
6599;BME280;3335;43.198;27.918;2023-03-14T00:29:02;148227.28;;;3.77;100.00
6599;BME280;3335;43.198;27.918;2023-03-14T00:31:31;148288.19;;;4.02;100.00
6599;BME280;3335;43.198;27.918;2023-03-14T00:33:58;148243.47;;;3.84;100.00
6599;BME280;3335;43.198;27.918;2023-03-14T00:36:25;148163.97;;;3.51;100.00
6599;BME280;3335;43.198;27.918;2023-03-14T00:38:53;148140.34;;;3.42;100.00
6599;BME280;3335;43.198;27.918;2023-03-14T00:41:21;148318.00;;;4.14;100.00
6599;BME280;3335;43.198;27.918;2023-03-14T00:43:49;148359.03;;;4.31;100.00
6599;BME280;3335;43.198;27.918;2023-03-14T00:46:16;148345.38;;;4.25;100.00
6599;BME280;3335;43.198;27.918;2023-03-14T00:48:45;148240.97;;;3.83;100.00
6599;BME280;3335;43.198;27.918;2023-03-14T00:51:13;148342.88;;;4.24;100.00
6599;BME280;3335;43.198;27.918;2023-03-14T00:53:41;148390.13;;;4.44;100.00
6599;BME280;3335;43.198;27.918;2023-03-14T00:56:10;148298.13;;;4.06;100.00
6599;BME280;3335;43.198;27.918;2023-03-14T00:58:38;148258.34;;;3.90;100.00
6599;BME280;3335;43.198;27.918;2023-03-14T01:01:06;148250.91;;;3.87;100.00
6599;BME280;3335;43.198;27.918;2023-03-14T01:03:34;148231.03;;;3.79;100.00
6599;BME280;3335;43.198;27.918;2023-03-14T01:06:10;148223.56;;;3.76;100.00
6599;BME280;3335;43.198;27.918;2023-03-14T01:08:37;148253.41;;;3.88;100.00
6599;BME280;3335;43.198;27.918;2023-03-14T01:11:08;148134.13;;;3.39;100.00
6599;BME280;3335;43.198;27.918;2023-03-14T01:13:36;148153.97;;;3.47;100.00
6599;BME280;3335;43.198;27.918;2023-03-14T01:16:04;148168.91;;;3.53;100.00
6599;BME280;3335;43.198;27.918;2023-03-14T01:18:32;148094.34;;;3.23;100.00
6599;BME280;3335;43.198;27.918;2023-03-14T01:21:00;148313.06;;;4.12;100.00
6599;BME280;3335;43.198;27.918;2023-03-14T01:23:29;148265.81;;;3.93;100.00
6599;BME280;3335;43.198;27.918;2023-03-14T01:25:56;148042.22;;;3.02;100.00
6599;BME280;3335;43.198;27.918;2023-03-14T01:28:22;148370.22;;;4.35;100.00
6599;BME280;3335;43.198;27.918;2023-03-14T01:30:49;148393.84;;;4.45;100.00
6599;BME280;3335;43.198;27.918;2023-03-14T01:33:16;148280.75;;;3.99;100.00
6599;BME280;3335;43.198;27.918;2023-03-14T01:35:43;148281.97;;;4.00;100.00
6599;BME280;3335;43.198;27.918;2023-03-14T01:38:10;148240.97;;;3.83;100.00
6599;BME280;3335;43.198;27.918;2023-03-14T01:40:43;148265.81;;;3.93;100.00
6599;BME280;3335;43.198;27.918;2023-03-14T01:43:15;148193.75;;;3.64;100.00
6599;BME280;3335;43.198;27.918;2023-03-14T01:48:57;148260.84;;;3.91;100.00
6599;BME280;3335;43.198;27.918;2023-03-14T01:51:29;148270.78;;;3.95;100.00
6599;BME280;3335;43.198;27.918;2023-03-14T01:54:03;148268.31;;;3.94;100.00
6599;BME280;3335;43.198;27.918;2023-03-14T01:56:33;148248.41;;;3.86;100.00
6599;BME280;3335;43.198;27.918;2023-03-14T01:59:01;148291.94;;;4.04;100.00
6599;BME280;3335;43.198;27.918;2023-03-14T02:01:30;148253.41;;;3.88;100.00
6599;BME280;3335;43.198;27.918;2023-03-14T02:04:00;148193.75;;;3.64;100.00
6599;BME280;3335;43.198;27.918;2023-03-14T02:06:33;148203.69;;;3.68;100.00
6599;BME280;3335;43.198;27.918;2023-03-14T02:09:02;148156.47;;;3.48;100.00
6599;BME280;3335;43.198;27.918;2023-03-14T02:11:29;148131.63;;;3.38;100.00
6599;BME280;3335;43.198;27.918;2023-03-14T02:13:59;148196.25;;;3.65;100.00
6599;BME280;3335;43.198;27.918;2023-03-14T02:16:26;148238.47;;;3.82;100.00
6599;BME280;3335;43.198;27.918;2023-03-14T02:18:53;148315.56;;;4.13;100.00
6599;BME280;3335;43.198;27.918;2023-03-14T02:21:23;148281.97;;;4.00;100.00
6599;BME280;3335;43.198;27.918;2023-03-14T02:24:04;148269.53;;;3.94;100.00
6599;BME280;3335;43.198;27.918;2023-03-14T02:26:38;148182.56;;;3.59;100.00
6599;BME280;3335;43.198;27.918;2023-03-14T02:29:08;148278.25;;;3.98;100.00
6599;BME280;3335;43.198;27.918;2023-03-14T02:31:35;148195.00;;;3.64;100.00
6599;BME280;3335;43.198;27.918;2023-03-14T02:34:02;148245.91;;;3.85;100.00
6599;BME280;3335;43.198;27.918;2023-03-14T02:36:30;148204.94;;;3.68;100.00
6599;BME280;3335;43.198;27.918;2023-03-14T02:39:03;148240.97;;;3.83;100.00
6599;BME280;3335;43.198;27.918;2023-03-14T02:41:34;148178.84;;;3.58;100.00
6599;BME280;3335;43.198;27.918;2023-03-14T02:44:01;148114.25;;;3.31;100.00
6599;BME280;3335;43.198;27.918;2023-03-14T02:46:29;148072.00;;;3.14;100.00
6599;BME280;3335;43.198;27.918;2023-03-14T02:49:01;148081.97;;;3.18;100.00
6599;BME280;3335;43.198;27.918;2023-03-14T02:51:29;148029.78;;;2.97;100.00
6599;BME280;3335;43.198;27.918;2023-03-14T02:53:56;148023.59;;;2.94;100.00
6599;BME280;3335;43.198;27.918;2023-03-14T02:56:23;147960.28;;;2.69;100.00
6599;BME280;3335;43.198;27.918;2023-03-14T02:58:50;147988.84;;;2.80;100.00
6599;BME280;3335;43.198;27.918;2023-03-14T03:01:17;147947.84;;;2.63;100.00
6599;BME280;3335;43.198;27.918;2023-03-14T03:03:45;147980.13;;;2.77;100.00
6599;BME280;3335;43.198;27.918;2023-03-14T03:06:12;147928.00;;;2.55;100.00
6599;BME280;3335;43.198;27.918;2023-03-14T03:08:39;147930.50;;;2.56;100.00
6599;BME280;3335;43.198;27.918;2023-03-14T03:11:06;147972.69;;;2.74;100.00
6599;BME280;3335;43.198;27.918;2023-03-14T03:13:33;147945.38;;;2.62;100.00
6599;BME280;3335;43.198;27.918;2023-03-14T03:16:00;147892.00;;;2.41;100.00
6599;BME280;3335;43.198;27.918;2023-03-14T03:18:27;147878.34;;;2.35;100.00
6599;BME280;3335;43.198;27.918;2023-03-14T03:20:59;147878.34;;;2.35;100.00
6599;BME280;3335;43.198;27.918;2023-03-14T03:23:27;147920.53;;;2.52;100.00
6599;BME280;3335;43.198;27.918;2023-03-14T03:25:53;147877.09;;;2.35;100.00
6599;BME280;3335;43.198;27.918;2023-03-14T03:28:21;147952.84;;;2.66;100.00
6599;BME280;3335;43.198;27.918;2023-03-14T03:30:48;148036.00;;;2.99;100.00
6599;BME280;3335;43.198;27.918;2023-03-14T03:33:14;147937.94;;;2.59;100.00
6599;BME280;3335;43.198;27.918;2023-03-14T03:35:43;147890.75;;;2.40;100.00
6599;BME280;3335;43.198;27.918;2023-03-14T03:38:12;147848.59;;;2.23;100.00
6599;BME280;3335;43.198;27.918;2023-03-14T03:40:39;147873.38;;;2.33;100.00
6599;BME280;3335;43.198;27.918;2023-03-14T03:43:06;147846.09;;;2.22;100.00
6599;BME280;3335;43.198;27.918;2023-03-14T03:45:33;147827.44;;;2.14;100.00
6599;BME280;3335;43.198;27.918;2023-03-14T03:47:59;147863.44;;;2.29;100.00
6599;BME280;3335;43.198;27.918;2023-03-14T03:50:26;148003.72;;;2.86;100.00
6599;BME280;3335;43.198;27.918;2023-03-14T03:52:53;147951.59;;;2.65;100.00
6599;BME280;3335;43.198;27.918;2023-03-14T03:55:21;147985.09;;;2.79;100.00
6599;BME280;3335;43.198;27.918;2023-03-14T03:57:48;147981.38;;;2.77;100.00
6599;BME280;3335;43.198;27.918;2023-03-14T04:00:16;148079.47;;;3.17;100.00
6599;BME280;3335;43.198;27.918;2023-03-14T04:02:43;148036.00;;;2.99;100.00
6599;BME280;3335;43.198;27.918;2023-03-14T04:05:10;148067.06;;;3.12;100.00
6599;BME280;3335;43.198;27.918;2023-03-14T04:07:37;148021.13;;;2.93;100.00
6599;BME280;3335;43.198;27.918;2023-03-14T04:10:05;148007.44;;;2.88;100.00
6599;BME280;3335;43.198;27.918;2023-03-14T04:12:33;147939.19;;;2.60;100.00
6599;BME280;3335;43.198;27.918;2023-03-14T04:15:00;147880.84;;;2.36;100.00
6599;BME280;3335;43.198;27.918;2023-03-14T04:17:27;147872.16;;;2.33;100.00
6599;BME280;3335;43.198;27.918;2023-03-14T04:19:54;147920.53;;;2.52;100.00
6599;BME280;3335;43.198;27.918;2023-03-14T04:22:20;148009.94;;;2.89;100.00
6599;BME280;3335;43.198;27.918;2023-03-14T04:24:47;147853.50;;;2.25;100.00
6599;BME280;3335;43.198;27.918;2023-03-14T04:27:14;147908.13;;;2.47;100.00
6599;BME280;3335;43.198;27.918;2023-03-14T04:29:43;147976.44;;;2.75;100.00
6599;BME280;3335;43.198;27.918;2023-03-14T04:32:10;148000.00;;;2.85;100.00
6599;BME280;3335;43.198;27.918;2023-03-14T04:34:37;148158.97;;;3.49;100.00
6599;BME280;3335;43.198;27.918;2023-03-14T04:37:04;148018.63;;;2.92;100.00
6599;BME280;3335;43.198;27.918;2023-03-14T04:39:31;147928.00;;;2.55;100.00
6599;BME280;3335;43.198;27.918;2023-03-14T04:41:57;147885.78;;;2.38;100.00
6599;BME280;3335;43.198;27.918;2023-03-14T04:44:24;147898.19;;;2.43;100.00
6599;BME280;3335;43.198;27.918;2023-03-14T04:46:53;147870.91;;;2.32;100.00
6599;BME280;3335;43.198;27.918;2023-03-14T04:49:20;147841.09;;;2.20;100.00
6599;BME280;3335;43.198;27.918;2023-03-14T04:51:47;147808.84;;;2.07;100.00
6599;BME280;3335;43.198;27.918;2023-03-14T04:54:16;147894.50;;;2.42;100.00
6599;BME280;3335;43.198;27.918;2023-03-14T04:56:43;147935.44;;;2.58;100.00
6599;BME280;3335;43.198;27.918;2023-03-14T04:59:09;147911.84;;;2.49;100.00
6599;BME280;3335;43.198;27.918;2023-03-14T05:01:36;147880.84;;;2.36;100.00
6599;BME280;3335;43.198;27.918;2023-03-14T05:04:05;147957.78;;;2.68;100.00
6599;BME280;3335;43.198;27.918;2023-03-14T05:06:32;147972.69;;;2.74;100.00
6599;BME280;3335;43.198;27.918;2023-03-14T05:08:58;148000.00;;;2.85;100.00
6599;BME280;3335;43.198;27.918;2023-03-14T05:11:25;148000.00;;;2.85;100.00
6599;BME280;3335;43.198;27.918;2023-03-14T05:13:52;148096.84;;;3.24;100.00
6599;BME280;3335;43.198;27.918;2023-03-14T05:16:19;148029.78;;;2.97;100.00
6599;BME280;3335;43.198;27.918;2023-03-14T05:18:46;147972.69;;;2.74;100.00
6599;BME280;3335;43.198;27.918;2023-03-14T05:21:14;148031.03;;;2.97;100.00
6599;BME280;3335;43.198;27.918;2023-03-14T05:23:41;147971.44;;;2.73;100.00
6599;BME280;3335;43.198;27.918;2023-03-14T05:26:08;147993.78;;;2.82;100.00
6599;BME280;3335;43.198;27.918;2023-03-14T05:28:35;147982.63;;;2.78;100.00
6599;BME280;3335;43.198;27.918;2023-03-14T05:31:06;147952.84;;;2.66;100.00
6599;BME280;3335;43.198;27.918;2023-03-14T05:33:33;148109.28;;;3.29;100.00
6599;BME280;3335;43.198;27.918;2023-03-14T05:36:00;148018.63;;;2.92;100.00
6599;BME280;3335;43.198;27.918;2023-03-14T05:38:29;148114.25;;;3.31;100.00
6599;BME280;3335;43.198;27.918;2023-03-14T05:40:55;148101.84;;;3.26;100.00
6599;BME280;3335;43.198;27.918;2023-03-14T05:43:22;148075.75;;;3.16;100.00
6599;BME280;3335;43.198;27.918;2023-03-14T05:45:49;148100.59;;;3.26;100.00
6599;BME280;3335;43.198;27.918;2023-03-14T05:48:16;148161.47;;;3.50;100.00
6599;BME280;3335;43.198;27.918;2023-03-14T05:50:43;148171.41;;;3.55;100.00
6599;BME280;3335;43.198;27.918;2023-03-14T05:53:10;148218.59;;;3.74;100.00
6599;BME280;3335;43.198;27.918;2023-03-14T05:55:39;148166.41;;;3.52;100.00
6599;BME280;3335;43.198;27.918;2023-03-14T05:58:06;148181.31;;;3.59;100.00
6599;BME280;3335;43.198;27.918;2023-03-14T06:00:33;148191.25;;;3.63;100.00
6599;BME280;3335;43.198;27.918;2023-03-14T06:03:00;148253.41;;;3.88;100.00
6599;BME280;3335;43.198;27.918;2023-03-14T06:05:27;148305.56;;;4.09;100.00
6599;BME280;3335;43.198;27.918;2023-03-14T06:07:54;148325.50;;;4.17;100.00
6599;BME280;3335;43.198;27.918;2023-03-14T06:10:21;148432.41;;;4.61;100.00
6599;BME280;3335;43.198;27.918;2023-03-14T06:12:49;148423.66;;;4.57;100.00
6599;BME280;3335;43.198;27.918;2023-03-14T06:15:16;148484.63;;;4.82;100.00
6599;BME280;3335;43.198;27.918;2023-03-14T06:17:44;148534.38;;;5.02;100.00
6599;BME280;3335;43.198;27.918;2023-03-14T06:20:11;148569.19;;;5.16;100.00
6599;BME280;3335;43.198;27.918;2023-03-14T06:22:38;148586.59;;;5.23;100.00
6599;BME280;3335;43.198;27.918;2023-03-14T06:25:06;148693.59;;;5.67;100.00
6599;BME280;3335;43.198;27.918;2023-03-14T06:27:34;148713.50;;;5.75;100.00
6599;BME280;3335;43.198;27.918;2023-03-14T06:30:02;148768.34;;;5.97;100.00
6599;BME280;3335;43.198;27.918;2023-03-14T06:32:29;148783.31;;;6.03;100.00
6599;BME280;3335;43.198;27.918;2023-03-14T06:34:56;148824.34;;;6.20;100.00
6599;BME280;3335;43.198;27.918;2023-03-14T06:37:26;148877.88;;;6.42;100.00
6599;BME280;3335;43.198;27.918;2023-03-14T06:39:53;149019.88;;;6.99;100.00
6599;BME280;3335;43.198;27.918;2023-03-14T06:42:20;148820.59;;;6.19;100.00
6599;BME280;3335;43.198;27.918;2023-03-14T06:44:47;148922.75;;;6.60;100.00
6599;BME280;3335;43.198;27.918;2023-03-14T06:47:15;148940.16;;;6.67;100.00
6599;BME280;3335;43.198;27.918;2023-03-14T06:49:42;149004.94;;;6.93;100.00
6599;BME280;3335;43.198;27.918;2023-03-14T06:52:09;149013.66;;;6.97;100.00
6599;BME280;3335;43.198;27.918;2023-03-14T06:54:36;149067.22;;;7.19;100.00
6599;BME280;3335;43.198;27.918;2023-03-14T06:57:03;149127.03;;;7.43;100.00
6599;BME280;3335;43.198;27.918;2023-03-14T06:59:30;149112.06;;;7.37;100.00
6599;BME280;3335;43.198;27.918;2023-03-14T07:01:57;149144.50;;;7.50;100.00
6599;BME280;3335;43.198;27.918;2023-03-14T07:04:25;149208.03;;;7.76;100.00
6599;BME280;3335;43.198;27.918;2023-03-14T07:06:52;149234.22;;;7.86;100.00
6599;BME280;3335;43.198;27.918;2023-03-14T07:09:19;149221.75;;;7.81;100.00
6599;BME280;3335;43.198;27.918;2023-03-14T07:11:47;149228.00;;;7.84;100.00
6599;BME280;3335;43.198;27.918;2023-03-14T07:14:13;149226.75;;;7.83;100.00
6599;BME280;3335;43.198;27.918;2023-03-14T07:16:40;149256.66;;;7.96;100.00
6599;BME280;3335;43.198;27.918;2023-03-14T07:19:07;149247.94;;;7.92;100.00
6599;BME280;3335;43.198;27.918;2023-03-14T07:21:36;149277.84;;;8.04;100.00
6599;BME280;3335;43.198;27.918;2023-03-14T07:24:03;149301.53;;;8.14;100.00
6599;BME280;3335;43.198;27.918;2023-03-14T07:26:30;149311.50;;;8.18;100.00
6599;BME280;3335;43.198;27.918;2023-03-14T07:28:57;149307.78;;;8.16;100.00
6599;BME280;3335;43.198;27.918;2023-03-14T07:31:24;149336.44;;;8.28;100.00
6599;BME280;3335;43.198;27.918;2023-03-14T07:33:51;149224.25;;;7.82;100.00
6599;BME280;3335;43.198;27.918;2023-03-14T07:36:18;149346.47;;;8.32;100.00
6599;BME280;3335;43.198;27.918;2023-03-14T07:38:47;149363.97;;;8.39;100.00
6599;BME280;3335;43.198;27.918;2023-03-14T07:41:14;149200.56;;;7.73;100.00
6599;BME280;3335;43.198;27.918;2023-03-14T07:43:41;149356.50;;;8.36;100.00
6599;BME280;3335;43.198;27.918;2023-03-14T07:46:08;149415.09;;;8.60;100.00
6599;BME280;3335;43.198;27.918;2023-03-14T07:48:34;149418.81;;;8.61;100.00
6599;BME280;3335;43.198;27.918;2023-03-14T07:51:01;149397.63;;;8.53;100.00
6599;BME280;3335;43.198;27.918;2023-03-14T07:53:28;149392.59;;;8.51;100.00
6599;BME280;3335;43.198;27.918;2023-03-14T07:55:57;149484.97;;;8.88;100.00
6599;BME280;3335;43.198;27.918;2023-03-14T07:58:24;149481.22;;;8.87;100.00
6599;BME280;3335;43.198;27.918;2023-03-14T08:00:51;149511.13;;;8.99;100.00
6599;BME280;3335;43.198;27.918;2023-03-14T08:03:18;149536.09;;;9.09;100.00
6599;BME280;3335;43.198;27.918;2023-03-14T08:05:47;149548.56;;;9.14;100.00
6599;BME280;3335;43.198;27.918;2023-03-14T08:08:14;149538.59;;;9.10;100.00
6599;BME280;3335;43.198;27.918;2023-03-14T08:10:41;149546.06;;;9.13;100.00
6599;BME280;3335;43.198;27.918;2023-03-14T08:13:10;149521.09;;;9.03;100.00
6599;BME280;3335;43.198;27.918;2023-03-14T08:15:37;149486.16;;;8.89;100.00
6599;BME280;3335;43.198;27.918;2023-03-14T08:18:04;149522.34;;;9.03;100.00
6599;BME280;3335;43.198;27.918;2023-03-14T08:20:32;149512.38;;;8.99;100.00
6599;BME280;3335;43.198;27.918;2023-03-14T08:23:00;149469.97;;;8.82;100.00
6599;BME280;3335;43.198;27.918;2023-03-14T08:25:27;149538.59;;;9.10;100.00
6599;BME280;3335;43.198;27.918;2023-03-14T08:27:55;149548.56;;;9.14;100.00
6599;BME280;3335;43.198;27.918;2023-03-14T08:30:23;149554.84;;;9.16;100.00
6599;BME280;3335;43.198;27.918;2023-03-14T08:32:50;149568.53;;;9.22;100.00
6599;BME280;3335;43.198;27.918;2023-03-14T08:35:18;149564.81;;;9.20;100.00
6599;BME280;3335;43.198;27.918;2023-03-14T08:37:45;149593.47;;;9.32;100.00
6599;BME280;3335;43.198;27.918;2023-03-14T08:40:13;149618.44;;;9.42;100.00
6599;BME280;3335;43.198;27.918;2023-03-14T08:42:40;149605.97;;;9.37;100.00
6599;BME280;3335;43.198;27.918;2023-03-14T08:45:09;149608.47;;;9.38;100.00
6599;BME280;3335;43.198;27.918;2023-03-14T08:47:38;149635.94;;;9.49;100.00
6599;BME280;3335;43.198;27.918;2023-03-14T08:50:07;149687.09;;;9.70;100.00
6599;BME280;3335;43.198;27.918;2023-03-14T08:52:34;149645.94;;;9.53;100.00
6599;BME280;3335;43.198;27.918;2023-03-14T08:55:03;149723.31;;;9.85;100.00
6599;BME280;3335;43.198;27.918;2023-03-14T08:57:30;149734.53;;;9.89;100.00
6599;BME280;3335;43.198;27.918;2023-03-14T08:59:57;149620.97;;;9.43;100.00
6599;BME280;3335;43.198;27.918;2023-03-14T09:02:25;149748.28;;;9.95;100.00
6599;BME280;3335;43.198;27.918;2023-03-14T09:04:54;149817.00;;;10.23;100.00
6599;BME280;3335;43.198;27.918;2023-03-14T09:07:21;149739.56;;;9.91;100.00
6599;BME280;3335;43.198;27.918;2023-03-14T09:09:48;149790.78;;;10.12;100.00
6599;BME280;3335;43.198;27.918;2023-03-14T09:12:15;149795.75;;;10.14;100.00
6599;BME280;3335;43.198;27.918;2023-03-14T09:14:42;149760.78;;;10.00;100.00
6599;BME280;3335;43.198;27.918;2023-03-14T09:17:09;149828.25;;;10.27;100.00
6599;BME280;3335;43.198;27.918;2023-03-14T09:19:36;149883.25;;;10.49;100.00
6599;BME280;3335;43.198;27.918;2023-03-14T09:22:04;149898.19;;;10.56;100.00
6599;BME280;3335;43.198;27.918;2023-03-14T09:24:31;149894.47;;;10.54;100.00
6599;BME280;3335;43.198;27.918;2023-03-14T09:26:58;149956.91;;;10.79;100.00
6599;BME280;3335;43.198;27.918;2023-03-14T09:29:25;150009.41;;;11.01;100.00
6599;BME280;3335;43.198;27.918;2023-03-14T09:31:52;149965.69;;;10.83;100.00
6599;BME280;3335;43.198;27.918;2023-03-14T09:34:19;150003.13;;;10.98;100.00
6599;BME280;3335;43.198;27.918;2023-03-14T09:36:46;150023.16;;;11.06;100.00
6599;BME280;3335;43.198;27.918;2023-03-14T09:39:14;150069.41;;;11.25;100.00
6599;BME280;3335;43.198;27.918;2023-03-14T09:41:44;150090.63;;;11.33;100.00
6599;BME280;3335;43.198;27.918;2023-03-14T09:44:14;150014.38;;;11.03;100.00
6599;BME280;3335;43.198;27.918;2023-03-14T09:46:45;150068.16;;;11.24;100.00
6599;BME280;3335;43.198;27.918;2023-03-14T09:49:20;150030.66;;;11.09;100.00
6599;BME280;3335;43.198;27.918;2023-03-14T09:51:50;150013.16;;;11.02;100.00
6599;BME280;3335;43.198;27.918;2023-03-14T09:54:28;150090.63;;;11.33;100.00
6599;BME280;3335;43.198;27.918;2023-03-14T09:56:56;150078.13;;;11.28;100.00
6599;BME280;3335;43.198;27.918;2023-03-14T09:59:23;150111.88;;;11.42;100.00
6599;BME280;3335;43.198;27.918;2023-03-14T10:01:52;150168.13;;;11.65;100.00
6599;BME280;3335;43.198;27.918;2023-03-14T10:04:22;150148.13;;;11.57;100.00
6599;BME280;3335;43.198;27.918;2023-03-14T10:06:49;150128.16;;;11.49;100.00
6599;BME280;3335;43.198;27.918;2023-03-14T10:09:20;150128.16;;;11.49;100.00
6599;BME280;3335;43.198;27.918;2023-03-14T10:11:54;150153.16;;;11.59;100.00
6599;BME280;3335;43.198;27.918;2023-03-14T10:14:35;150215.69;;;11.84;100.00
6599;BME280;3335;43.198;27.918;2023-03-14T10:17:07;150205.69;;;11.80;100.00
6599;BME280;3335;43.198;27.918;2023-03-14T10:19:35;150223.22;;;11.87;100.00
6599;BME280;3335;43.198;27.918;2023-03-14T10:22:04;150241.94;;;11.95;100.00
6599;BME280;3335;43.198;27.918;2023-03-14T10:24:32;150288.22;;;12.13;100.00
6599;BME280;3335;43.198;27.918;2023-03-14T10:27:03;150245.72;;;11.96;100.00
6599;BME280;3335;43.198;27.918;2023-03-14T10:29:32;150255.72;;;12.00;100.00
6599;BME280;3335;43.198;27.918;2023-03-14T10:32:00;150303.25;;;12.19;100.00
6599;BME280;3335;43.198;27.918;2023-03-14T10:34:29;150363.28;;;12.44;100.00
6599;BME280;3335;43.198;27.918;2023-03-14T10:36:58;150360.78;;;12.43;100.00
6599;BME280;3335;43.198;27.918;2023-03-14T10:39:29;150355.75;;;12.41;100.00
6599;BME280;3335;43.198;27.918;2023-03-14T10:42:05;150373.28;;;12.48;100.00
6599;BME280;3335;43.198;27.918;2023-03-14T10:44:34;150372.03;;;12.47;100.00
6599;BME280;3335;43.198;27.918;2023-03-14T10:47:03;150398.31;;;12.58;100.00
6599;BME280;3335;43.198;27.918;2023-03-14T10:49:32;150370.78;;;12.47;100.00
6599;BME280;3335;43.198;27.918;2023-03-14T10:52:14;150328.25;;;12.30;100.00
6599;BME280;3335;43.198;27.918;2023-03-14T10:54:42;150418.31;;;12.66;100.00
6599;BME280;3335;43.198;27.918;2023-03-14T10:57:14;150418.31;;;12.66;100.00
6599;BME280;3335;43.198;27.918;2023-03-14T10:59:42;150410.84;;;12.63;100.00
6599;BME280;3335;43.198;27.918;2023-03-14T11:02:31;150445.88;;;12.77;100.00
6599;BME280;3335;43.198;27.918;2023-03-14T11:05:06;150513.41;;;13.04;100.00
6599;BME280;3335;43.198;27.918;2023-03-14T11:07:39;150470.91;;;12.87;100.00
6599;BME280;3335;43.198;27.918;2023-03-14T11:10:18;150480.91;;;12.91;100.00
6599;BME280;3335;43.198;27.918;2023-03-14T11:12:55;150475.88;;;12.89;100.00
6599;BME280;3335;43.198;27.918;2023-03-14T11:15:31;150439.56;;;12.75;100.00
6599;BME280;3335;43.198;27.918;2023-03-14T11:18:18;150541.03;;;13.16;100.00
6599;BME280;3335;43.198;27.918;2023-03-14T11:20:52;150587.31;;;13.34;100.00
6599;BME280;3335;43.198;27.918;2023-03-14T11:23:24;150613.59;;;13.45;100.00
6599;BME280;3335;43.198;27.918;2023-03-14T11:25:58;150587.31;;;13.34;100.00
6599;BME280;3335;43.198;27.918;2023-03-14T11:28:34;150613.59;;;13.45;100.00
6599;BME280;3335;43.198;27.918;2023-03-14T11:31:09;150666.19;;;13.66;100.00
6599;BME280;3335;43.198;27.918;2023-03-14T11:33:47;150701.25;;;13.80;100.00
6599;BME280;3335;43.198;27.918;2023-03-14T11:36:21;150543.50;;;13.17;100.00
6599;BME280;3335;43.198;27.918;2023-03-14T11:38:50;150578.53;;;13.31;100.00
6599;BME280;3335;43.198;27.918;2023-03-14T11:41:20;150598.59;;;13.39;100.00
6599;BME280;3335;43.198;27.918;2023-03-14T11:43:54;150653.66;;;13.61;100.00
6599;BME280;3335;43.198;27.918;2023-03-14T11:46:25;150698.72;;;13.79;100.00
6599;BME280;3335;43.198;27.918;2023-03-14T11:48:59;150715.03;;;13.86;100.00
6599;BME280;3335;43.198;27.918;2023-03-14T11:51:29;150686.19;;;13.74;100.00
6599;BME280;3335;43.198;27.918;2023-03-14T11:54:04;150528.44;;;13.10;100.00
6599;BME280;3335;43.198;27.918;2023-03-14T11:56:39;150561.03;;;13.24;100.00
6599;BME280;3335;43.198;27.918;2023-03-14T11:59:16;150611.13;;;13.44;100.00
6599;BME280;3335;43.198;27.918;2023-03-14T12:01:56;150669.97;;;13.68;100.00
6599;BME280;3335;43.198;27.918;2023-03-14T12:04:39;150715.03;;;13.86;100.00
6599;BME280;3335;43.198;27.918;2023-03-14T12:07:14;150611.13;;;13.44;100.00
6599;BME280;3335;43.198;27.918;2023-03-14T12:09:44;150536.00;;;13.13;100.00
6599;BME280;3335;43.198;27.918;2023-03-14T12:12:15;150611.13;;;13.44;100.00
6599;BME280;3335;43.198;27.918;2023-03-14T12:14:52;150592.31;;;13.36;100.00
6599;BME280;3335;43.198;27.918;2023-03-14T12:17:21;150659.94;;;13.64;100.00
6599;BME280;3335;43.198;27.918;2023-03-14T12:20:00;150710.00;;;13.84;100.00
6599;BME280;3335;43.198;27.918;2023-03-14T12:22:30;150718.81;;;13.87;100.00
6599;BME280;3335;43.198;27.918;2023-03-14T12:25:03;150663.66;;;13.65;100.00
6599;BME280;3335;43.198;27.918;2023-03-14T12:27:47;150727.56;;;13.91;100.00
6599;BME280;3335;43.198;27.918;2023-03-14T12:30:26;150715.03;;;13.86;100.00
6599;BME280;3335;43.198;27.918;2023-03-14T12:36:12;150753.84;;;14.01;100.00
6599;BME280;3335;43.198;27.918;2023-03-14T12:39:10;150756.31;;;14.02;100.00
6599;BME280;3335;43.198;27.918;2023-03-14T12:41:44;150790.13;;;14.16;100.00
6599;BME280;3335;43.198;27.918;2023-03-14T12:44:42;150711.25;;;13.84;100.00
6599;BME280;3335;43.198;27.918;2023-03-14T12:47:57;150761.34;;;14.05;100.00
6599;BME280;3335;43.198;27.918;2023-03-14T12:50:33;150683.75;;;13.73;100.00
6599;BME280;3335;43.198;27.918;2023-03-14T12:53:33;150664.94;;;13.66;100.00
6599;BME280;3335;43.198;27.918;2023-03-14T12:56:11;150584.81;;;13.33;100.00
6599;BME280;3335;43.198;27.918;2023-03-14T12:58:49;150617.34;;;13.46;100.00
6599;BME280;3335;43.198;27.918;2023-03-14T13:01:21;150508.41;;;13.02;100.00
6599;BME280;3335;43.198;27.918;2023-03-14T13:03:51;150594.81;;;13.37;100.00
6599;BME280;3335;43.198;27.918;2023-03-14T13:06:49;150513.41;;;13.04;100.00
6599;BME280;3335;43.198;27.918;2023-03-14T13:09:53;150455.88;;;12.81;100.00
6599;BME280;3335;43.198;27.918;2023-03-14T13:12:27;150523.44;;;13.08;100.00
6599;BME280;3335;43.198;27.918;2023-03-14T13:14:58;150517.19;;;13.06;100.00
6599;BME280;3335;43.198;27.918;2023-03-14T13:17:27;150586.06;;;13.34;100.00